createdAt,value
2023-01-19T00:00:04.683Z,0.00
2023-01-19T00:01:03.957Z,0.00
2023-01-19T00:02:04.672Z,0.00
2023-01-19T00:03:04.540Z,0.00
2023-01-19T00:04:04.903Z,0.00
2023-01-19T00:05:04.426Z,0.00
2023-01-19T00:06:04.799Z,0.00
2023-01-19T00:07:04.243Z,0.00
2023-01-19T00:08:04.147Z,0.00
2023-01-19T00:09:04.145Z,0.00
2023-01-19T00:10:04.424Z,0.00
2023-01-19T00:11:04.380Z,0.00
2023-01-19T00:12:04.375Z,0.00
2023-01-19T00:13:04.351Z,0.00
2023-01-19T00:14:04.352Z,0.00
2023-01-19T00:15:04.427Z,0.00
2023-01-19T00:16:03.917Z,0.00
2023-01-19T00:17:05.027Z,0.00
2023-01-19T00:18:04.963Z,0.00
2023-01-19T00:19:04.820Z,0.00
2023-01-19T00:20:04.580Z,0.00
2023-01-19T00:21:04.926Z,0.00
2023-01-19T00:22:04.015Z,0.00
2023-01-19T00:23:04.405Z,0.00
2023-01-19T00:24:04.110Z,0.00
2023-01-19T00:25:03.900Z,0.00
2023-01-19T00:26:03.968Z,0.00
2023-01-19T00:27:04.611Z,0.00
2023-01-19T00:28:04.371Z,0.00
2023-01-19T00:29:04.010Z,0.00
2023-01-19T00:30:04.575Z,0.00
2023-01-19T00:31:04.159Z,0.00
2023-01-19T00:32:04.850Z,0.00
2023-01-19T00:33:04.819Z,0.00
2023-01-19T00:34:04.808Z,0.00
2023-01-19T00:35:04.546Z,0.00
2023-01-19T00:36:04.399Z,0.00
2023-01-19T00:37:04.552Z,0.00
2023-01-19T00:38:04.847Z,0.00
2023-01-19T00:39:04.515Z,0.00
2023-01-19T00:40:04.764Z,0.00
2023-01-19T00:41:04.897Z,0.00
2023-01-19T00:42:03.956Z,0.00
2023-01-19T00:43:04.400Z,0.00
2023-01-19T00:44:04.288Z,0.00
2023-01-19T00:45:04.342Z,0.00
2023-01-19T00:46:04.532Z,0.00
2023-01-19T00:47:03.544Z,0.00
2023-01-19T00:48:03.610Z,0.00
2023-01-19T00:49:04.006Z,0.00
2023-01-19T00:50:03.944Z,0.00
2023-01-19T00:51:04.143Z,0.00
2023-01-19T00:52:04.432Z,0.00
2023-01-19T00:53:04.316Z,0.00
2023-01-19T00:54:03.888Z,0.00
2023-01-19T00:55:04.309Z,0.00
2023-01-19T00:56:03.928Z,0.00
2023-01-19T00:57:03.694Z,0.00
2023-01-19T00:58:03.547Z,0.00
2023-01-19T00:59:04.187Z,0.00
2023-01-19T01:00:04.149Z,0.00
2023-01-19T01:01:04.056Z,0.00
2023-01-19T01:02:04.728Z,0.00
2023-01-19T01:03:05.056Z,0.00
2023-01-19T01:04:04.286Z,0.00
2023-01-19T01:05:04.264Z,0.00
2023-01-19T01:06:04.158Z,0.00
2023-01-19T01:07:04.092Z,0.00
2023-01-19T01:08:04.464Z,0.00
2023-01-19T01:09:04.491Z,0.00
2023-01-19T01:10:04.291Z,0.00
2023-01-19T01:11:04.096Z,0.00
2023-01-19T01:12:03.800Z,0.00
2023-01-19T01:13:20.275Z,0.00
2023-01-19T01:14:04.037Z,0.00
2023-01-19T01:15:04.287Z,0.00
2023-01-19T01:16:02.504Z,0.00
2023-01-19T01:17:04.124Z,0.00
2023-01-19T01:18:04.105Z,0.00
2023-01-19T01:19:03.849Z,0.00
2023-01-19T01:20:03.799Z,0.00
2023-01-19T01:21:03.807Z,0.00
2023-01-19T01:22:03.936Z,0.00
2023-01-19T01:23:04.743Z,0.00
2023-01-19T01:24:04.387Z,0.00
2023-01-19T01:25:04.275Z,0.00
2023-01-19T01:26:03.999Z,0.00
2023-01-19T01:27:03.820Z,0.00
2023-01-19T01:28:03.994Z,0.00
2023-01-19T01:29:04.028Z,0.00
2023-01-19T01:30:04.391Z,0.00
2023-01-19T01:31:04.348Z,0.00
2023-01-19T01:32:04.143Z,0.00
2023-01-19T01:33:04.157Z,0.00
2023-01-19T01:34:04.273Z,0.00
2023-01-19T01:35:04.544Z,0.00
2023-01-19T01:36:04.639Z,0.00
2023-01-19T01:37:03.933Z,0.00
2023-01-19T01:38:03.822Z,0.00
2023-01-19T01:39:03.990Z,0.00
2023-01-19T01:40:03.967Z,0.00
2023-01-19T01:41:03.897Z,0.00
2023-01-19T01:42:03.883Z,0.00
2023-01-19T01:43:03.869Z,0.00
2023-01-19T01:44:03.659Z,0.00
2023-01-19T01:45:03.859Z,0.00
2023-01-19T01:46:04.070Z,0.00
2023-01-19T01:47:04.010Z,0.00
2023-01-19T01:48:03.865Z,0.00
2023-01-19T01:49:03.965Z,0.00
2023-01-19T01:50:03.857Z,0.00
2023-01-19T01:51:03.836Z,0.00
2023-01-19T01:52:03.731Z,0.00
2023-01-19T01:53:07.325Z,0.00
2023-01-19T01:54:03.656Z,0.00
2023-01-19T01:55:03.645Z,0.00
2023-01-19T01:56:03.574Z,0.00
2023-01-19T01:57:04.018Z,0.00
2023-01-19T01:58:03.930Z,0.00
2023-01-19T01:59:03.901Z,0.00
2023-01-19T02:00:03.909Z,0.00
2023-01-19T02:01:04.508Z,0.00
2023-01-19T02:02:04.034Z,0.00
2023-01-19T02:03:04.543Z,0.00
2023-01-19T02:04:03.966Z,0.00
2023-01-19T02:05:04.362Z,0.00
2023-01-19T02:06:03.814Z,0.00
2023-01-19T02:07:04.146Z,0.00
2023-01-19T02:08:04.199Z,0.00
2023-01-19T02:09:04.126Z,0.00
2023-01-19T02:10:04.245Z,0.00
2023-01-19T02:11:04.103Z,0.00
2023-01-19T02:12:03.592Z,0.00
2023-01-19T02:13:03.736Z,0.00
2023-01-19T02:14:03.750Z,0.00
2023-01-19T02:15:03.736Z,0.00
2023-01-19T02:16:03.603Z,0.00
2023-01-19T02:17:04.265Z,0.00
2023-01-19T02:18:04.427Z,0.00
2023-01-19T02:19:04.325Z,0.00
2023-01-19T02:20:04.342Z,0.00
2023-01-19T02:21:04.016Z,0.00
2023-01-19T02:22:03.749Z,0.00
2023-01-19T02:23:03.774Z,0.00
2023-01-19T02:24:03.307Z,0.00
2023-01-19T02:25:03.321Z,0.00
2023-01-19T02:26:03.336Z,0.00
2023-01-19T02:27:03.568Z,0.00
2023-01-19T02:28:03.778Z,0.00
2023-01-19T02:29:03.709Z,0.00
2023-01-19T02:30:03.740Z,0.00
2023-01-19T02:31:03.847Z,0.00
2023-01-19T02:32:04.136Z,0.00
2023-01-19T02:33:03.939Z,0.00
2023-01-19T02:34:03.802Z,0.00
2023-01-19T02:35:03.735Z,0.00
2023-01-19T02:36:04.298Z,0.00
2023-01-19T02:37:04.239Z,0.00
2023-01-19T02:38:04.094Z,0.00
2023-01-19T02:39:04.406Z,0.00
2023-01-19T02:40:04.111Z,0.00
2023-01-19T02:41:04.306Z,0.00
2023-01-19T02:42:03.934Z,0.00
2023-01-19T02:43:04.209Z,0.00
2023-01-19T02:44:04.151Z,0.00
2023-01-19T02:45:03.964Z,0.00
2023-01-19T02:46:04.480Z,0.00
2023-01-19T02:47:03.539Z,0.00
2023-01-19T02:48:03.482Z,0.00
2023-01-19T02:49:03.227Z,0.00
2023-01-19T02:50:03.182Z,0.00
2023-01-19T02:51:03.126Z,0.00
2023-01-19T02:52:03.710Z,0.00
2023-01-19T02:53:03.517Z,0.00
2023-01-19T02:54:03.355Z,0.00
2023-01-19T02:55:03.268Z,0.00
2023-01-19T02:56:03.558Z,0.00
2023-01-19T02:57:03.429Z,0.00
2023-01-19T02:58:03.229Z,0.00
2023-01-19T02:59:03.496Z,0.00
2023-01-19T03:00:03.103Z,0.00
2023-01-19T03:01:03.097Z,0.00
2023-01-19T03:02:04.400Z,0.00
2023-01-19T03:03:04.954Z,0.00
2023-01-19T03:04:04.169Z,0.00
2023-01-19T03:05:05.159Z,0.00
2023-01-19T03:06:04.233Z,0.00
2023-01-19T03:07:04.205Z,0.00
2023-01-19T03:08:04.179Z,0.00
2023-01-19T03:09:03.879Z,0.00
2023-01-19T03:10:03.906Z,0.00
2023-01-19T03:11:03.934Z,0.00
2023-01-19T03:12:04.161Z,0.00
2023-01-19T03:13:04.280Z,0.00
2023-01-19T03:14:04.071Z,0.00
2023-01-19T03:15:04.321Z,0.00
2023-01-19T03:16:04.081Z,0.00
2023-01-19T03:17:04.145Z,0.00
2023-01-19T03:18:04.190Z,0.00
2023-01-19T03:19:04.599Z,0.00
2023-01-19T03:20:04.505Z,0.00
2023-01-19T03:21:04.730Z,0.00
2023-01-19T03:22:04.352Z,0.00
2023-01-19T03:23:04.461Z,0.00
2023-01-19T03:24:03.901Z,0.00
2023-01-19T03:25:03.772Z,0.00
2023-01-19T03:26:04.230Z,0.00
2023-01-19T03:27:03.253Z,0.00
2023-01-19T03:28:03.305Z,0.00
2023-01-19T03:29:03.437Z,0.00
2023-01-19T03:30:03.227Z,0.00
2023-01-19T03:31:03.865Z,0.00
2023-01-19T03:32:04.262Z,0.00
2023-01-19T03:33:04.093Z,0.00
2023-01-19T03:34:04.034Z,0.00
2023-01-19T03:35:03.845Z,0.00
2023-01-19T03:36:04.038Z,0.00
2023-01-19T03:37:04.349Z,0.00
2023-01-19T03:38:04.356Z,0.00
2023-01-19T03:39:04.431Z,0.00
2023-01-19T03:40:04.602Z,0.00
2023-01-19T03:41:04.152Z,0.00
2023-01-19T03:42:04.304Z,0.00
2023-01-19T03:43:04.296Z,0.00
2023-01-19T03:44:04.054Z,0.00
2023-01-19T03:45:03.923Z,0.00
2023-01-19T03:46:04.073Z,0.00
2023-01-19T03:47:03.374Z,0.00
2023-01-19T03:48:03.491Z,0.00
2023-01-19T03:49:03.419Z,0.00
2023-01-19T03:50:03.401Z,0.00
2023-01-19T03:51:03.245Z,0.00
2023-01-19T03:52:03.343Z,0.00
2023-01-19T03:53:03.733Z,0.00
2023-01-19T03:54:03.931Z,0.00
2023-01-19T03:55:03.902Z,0.00
2023-01-19T03:56:03.750Z,0.00
2023-01-19T03:57:03.830Z,0.00
2023-01-19T03:58:03.744Z,0.00
2023-01-19T03:59:03.941Z,0.00
2023-01-19T04:00:04.058Z,0.00
2023-01-19T04:01:03.694Z,0.00
2023-01-19T04:02:03.420Z,0.00
2023-01-19T04:03:03.751Z,0.00
2023-01-19T04:04:03.911Z,0.00
2023-01-19T04:05:03.689Z,0.00
2023-01-19T04:06:03.477Z,0.00
2023-01-19T04:07:04.058Z,0.00
2023-01-19T04:08:03.963Z,0.00
2023-01-19T04:09:04.176Z,0.00
2023-01-19T04:10:04.277Z,0.00
2023-01-19T04:11:04.212Z,0.00
2023-01-19T04:12:04.057Z,0.00
2023-01-19T04:13:04.753Z,0.00
2023-01-19T04:14:04.462Z,0.00
2023-01-19T04:15:04.348Z,0.00
2023-01-19T04:16:04.559Z,0.00
2023-01-19T04:17:04.401Z,0.00
2023-01-19T04:18:04.282Z,0.00
2023-01-19T04:19:04.277Z,0.00
2023-01-19T04:20:04.399Z,0.00
2023-01-19T04:21:04.360Z,0.00
2023-01-19T04:22:03.819Z,0.00
2023-01-19T04:23:04.133Z,0.00
2023-01-19T04:24:03.692Z,0.00
2023-01-19T04:25:03.130Z,0.00
2023-01-19T04:26:03.120Z,0.00
2023-01-19T04:27:03.224Z,0.00
2023-01-19T04:28:03.748Z,0.00
2023-01-19T04:29:03.128Z,0.00
2023-01-19T04:30:03.486Z,0.00
2023-01-19T04:31:03.526Z,0.00
2023-01-19T04:32:03.677Z,0.00
2023-01-19T04:33:04.321Z,0.00
2023-01-19T04:34:03.991Z,0.00
2023-01-19T04:35:03.930Z,0.00
2023-01-19T04:36:03.675Z,0.00
2023-01-19T04:37:03.619Z,0.00
2023-01-19T04:38:03.437Z,0.00
2023-01-19T04:39:03.636Z,0.00
2023-01-19T04:40:03.575Z,0.00
2023-01-19T04:41:03.505Z,0.00
2023-01-19T04:42:04.023Z,0.00
2023-01-19T04:43:04.168Z,0.00
2023-01-19T04:44:04.233Z,0.00
2023-01-19T04:45:03.922Z,0.00
2023-01-19T04:46:04.115Z,0.00
2023-01-19T04:47:04.157Z,0.00
2023-01-19T04:48:04.018Z,0.00
2023-01-19T04:49:04.530Z,0.00
2023-01-19T04:50:04.502Z,0.00
2023-01-19T04:51:04.374Z,0.00
2023-01-19T04:52:03.345Z,0.00
2023-01-19T04:53:03.412Z,0.00
2023-01-19T04:54:03.563Z,0.00
2023-01-19T04:55:03.661Z,0.00
2023-01-19T04:56:03.438Z,0.00
2023-01-19T04:57:03.984Z,0.00
2023-01-19T04:58:04.380Z,0.00
2023-01-19T04:59:04.271Z,0.00
2023-01-19T05:00:04.034Z,0.00
2023-01-19T05:01:03.891Z,0.00
2023-01-19T05:02:03.434Z,0.00
2023-01-19T05:03:03.821Z,0.00
2023-01-19T05:04:03.539Z,0.00
2023-01-19T05:05:03.604Z,0.00
2023-01-19T05:06:03.491Z,0.00
2023-01-19T05:07:04.139Z,0.00
2023-01-19T05:08:03.948Z,0.00
2023-01-19T05:09:03.814Z,0.00
2023-01-19T05:10:04.420Z,0.00
2023-01-19T05:11:04.096Z,0.00
2023-01-19T05:12:03.781Z,0.00
2023-01-19T05:13:03.957Z,0.00
2023-01-19T05:14:03.641Z,0.00
2023-01-19T05:15:03.705Z,0.00
2023-01-19T05:16:03.812Z,0.00
2023-01-19T05:17:03.704Z,0.00
2023-01-19T05:18:03.502Z,0.00
2023-01-19T05:19:03.458Z,0.00
2023-01-19T05:20:03.628Z,0.00
2023-01-19T05:21:03.469Z,0.00
2023-01-19T05:22:03.850Z,0.00
2023-01-19T05:23:04.188Z,0.00
2023-01-19T05:24:03.589Z,0.00
2023-01-19T05:25:03.478Z,0.00
2023-01-19T05:26:03.538Z,0.00
2023-01-19T05:27:04.073Z,0.00
2023-01-19T05:28:04.015Z,0.00
2023-01-19T05:29:04.380Z,0.00
2023-01-19T05:30:04.282Z,0.00
2023-01-19T05:31:04.324Z,0.00
2023-01-19T05:32:04.263Z,0.00
2023-01-19T05:33:04.298Z,0.00
2023-01-19T05:34:04.073Z,0.00
2023-01-19T05:35:04.378Z,0.00
2023-01-19T05:36:04.046Z,0.00
2023-01-19T05:37:03.905Z,0.00
2023-01-19T05:38:03.897Z,0.00
2023-01-19T05:39:03.775Z,0.00
2023-01-19T05:40:03.935Z,0.00
2023-01-19T05:41:03.547Z,0.00
2023-01-19T05:42:03.343Z,0.00
2023-01-19T05:43:04.259Z,0.00
2023-01-19T05:44:03.938Z,0.00
2023-01-19T05:45:04.347Z,0.00
2023-01-19T05:46:03.512Z,0.00
2023-01-19T05:47:03.875Z,0.00
2023-01-19T05:48:04.317Z,0.00
2023-01-19T05:49:04.192Z,0.00
2023-01-19T05:50:04.103Z,0.00
2023-01-19T05:51:03.889Z,0.00
2023-01-19T05:52:03.500Z,0.00
2023-01-19T05:53:03.731Z,0.00
2023-01-19T05:54:03.131Z,0.00
2023-01-19T05:55:03.077Z,0.00
2023-01-19T05:56:03.123Z,0.00
2023-01-19T05:57:03.634Z,0.00
2023-01-19T05:58:03.514Z,0.00
2023-01-19T05:59:03.101Z,0.00
2023-01-19T06:00:03.743Z,0.00
2023-01-19T06:01:03.149Z,0.00
2023-01-19T06:02:03.867Z,0.00
2023-01-19T06:03:03.972Z,0.00
2023-01-19T06:04:03.546Z,0.00
2023-01-19T06:05:03.410Z,0.00
2023-01-19T06:06:03.578Z,0.00
2023-01-19T06:07:04.035Z,0.00
2023-01-19T06:08:03.922Z,0.00
2023-01-19T06:09:04.228Z,0.00
2023-01-19T06:10:03.977Z,0.00
2023-01-19T06:11:04.068Z,0.00
2023-01-19T06:12:03.770Z,0.00
2023-01-19T06:13:03.704Z,0.00
2023-01-19T06:14:02.335Z,0.00
2023-01-19T06:15:03.458Z,0.00
2023-01-19T06:16:03.621Z,0.00
2023-01-19T06:17:03.893Z,0.00
2023-01-19T06:18:03.726Z,0.00
2023-01-19T06:19:03.401Z,0.00
2023-01-19T06:20:03.632Z,0.00
2023-01-19T06:21:03.593Z,0.00
2023-01-19T06:22:04.041Z,0.00
2023-01-19T06:23:04.260Z,0.00
2023-01-19T06:24:04.179Z,0.00
2023-01-19T06:25:04.062Z,0.00
2023-01-19T06:26:04.057Z,0.00
2023-01-19T06:27:03.720Z,0.00
2023-01-19T06:28:03.256Z,0.00
2023-01-19T06:29:03.576Z,0.00
2023-01-19T06:30:03.768Z,0.00
2023-01-19T06:31:03.574Z,0.00
2023-01-19T06:32:04.340Z,0.00
2023-01-19T06:33:04.155Z,0.00
2023-01-19T06:34:04.170Z,0.00
2023-01-19T06:35:04.132Z,0.00
2023-01-19T06:36:04.019Z,0.00
2023-01-19T06:37:03.083Z,0.00
2023-01-19T06:38:03.548Z,0.00
2023-01-19T06:39:03.276Z,0.00
2023-01-19T06:40:03.075Z,0.00
2023-01-19T06:41:03.526Z,0.00
2023-01-19T06:42:04.249Z,0.00
2023-01-19T06:43:04.345Z,0.00
2023-01-19T06:44:04.264Z,0.00
2023-01-19T06:45:03.758Z,0.00
2023-01-19T06:46:04.087Z,0.00
2023-01-19T06:47:15.317Z,0.00
2023-01-19T06:48:03.164Z,0.00
2023-01-19T06:49:03.336Z,0.00
2023-01-19T06:50:03.229Z,0.00
2023-01-19T06:51:02.993Z,0.00
2023-01-19T06:52:03.119Z,0.00
2023-01-19T06:53:03.644Z,0.00
2023-01-19T06:54:03.619Z,0.00
2023-01-19T06:55:03.371Z,0.00
2023-01-19T06:56:04.368Z,4.00
2023-01-19T06:57:03.619Z,4.00
2023-01-19T06:58:03.845Z,4.00
2023-01-19T06:59:04.174Z,0.00
2023-01-19T07:00:04.145Z,4.00
2023-01-19T07:01:04.316Z,4.00
2023-01-19T07:02:26.220Z,4.00
2023-01-19T07:03:04.709Z,8.00
2023-01-19T07:04:03.808Z,4.00
2023-01-19T07:05:04.136Z,4.00
2023-01-19T07:06:04.002Z,8.00
2023-01-19T07:07:04.096Z,8.00
2023-01-19T07:08:04.082Z,12.00
2023-01-19T07:09:04.268Z,8.00
2023-01-19T07:10:04.263Z,12.00
2023-01-19T07:11:25.421Z,12.00
2023-01-19T07:12:03.693Z,16.00
2023-01-19T07:13:04.046Z,20.00
2023-01-19T07:14:03.805Z,24.00
2023-01-19T07:15:03.845Z,28.00
2023-01-19T07:16:03.693Z,36.00
2023-01-19T07:17:04.092Z,36.00
2023-01-19T07:18:04.131Z,40.00
2023-01-19T07:19:04.268Z,40.00
2023-01-19T07:20:04.177Z,44.00
2023-01-19T07:21:03.963Z,44.00
2023-01-19T07:22:04.265Z,44.00
2023-01-19T07:23:04.317Z,48.00
2023-01-19T07:24:04.550Z,48.00
2023-01-19T07:25:04.371Z,52.00
2023-01-19T07:26:04.442Z,52.00
2023-01-19T07:27:03.380Z,56.00
2023-01-19T07:28:03.481Z,64.00
2023-01-19T07:29:03.474Z,68.00
2023-01-19T07:30:03.445Z,72.00
2023-01-19T07:31:03.531Z,76.00
2023-01-19T07:32:03.695Z,76.00
2023-01-19T07:33:04.226Z,80.00
2023-01-19T07:34:03.854Z,80.00
2023-01-19T07:35:03.558Z,80.00
2023-01-19T07:36:03.890Z,76.00
2023-01-19T07:37:03.888Z,72.00
2023-01-19T07:38:03.798Z,68.00
2023-01-19T07:39:03.699Z,68.00
2023-01-19T07:40:03.990Z,68.00
2023-01-19T07:41:03.874Z,80.00
2023-01-19T07:42:03.482Z,84.00
2023-01-19T07:43:03.946Z,92.00
2023-01-19T07:44:03.361Z,104.00
2023-01-19T07:45:03.700Z,112.00
2023-01-19T07:46:03.767Z,120.00
2023-01-19T07:47:04.116Z,128.00
2023-01-19T07:48:04.034Z,132.00
2023-01-19T07:49:04.156Z,140.00
2023-01-19T07:50:04.101Z,152.00
2023-01-19T07:51:03.971Z,164.00
2023-01-19T07:52:03.638Z,188.00
2023-01-19T07:53:03.659Z,208.00
2023-01-19T07:54:03.582Z,216.00
2023-01-19T07:55:03.620Z,216.00
2023-01-19T07:56:03.793Z,224.00
2023-01-19T07:57:03.773Z,228.00
2023-01-19T07:58:03.700Z,228.00
2023-01-19T07:59:03.654Z,232.00
2023-01-19T08:00:03.475Z,236.00
2023-01-19T08:01:03.875Z,240.00
2023-01-19T08:02:04.781Z,236.00
2023-01-19T08:03:05.421Z,228.00
2023-01-19T08:04:04.677Z,232.00
2023-01-19T08:05:04.961Z,228.00
2023-01-19T08:06:04.941Z,228.00
2023-01-19T08:07:04.537Z,224.00
2023-01-19T08:08:04.588Z,220.00
2023-01-19T08:09:04.164Z,216.00
2023-01-19T08:10:04.425Z,208.00
2023-01-19T08:11:04.325Z,192.00
2023-01-19T08:12:04.069Z,184.00
2023-01-19T08:13:04.250Z,176.00
2023-01-19T08:14:06.278Z,172.00
2023-01-19T08:15:03.777Z,160.00
2023-01-19T08:16:04.361Z,152.00
2023-01-19T08:17:04.359Z,156.00
2023-01-19T08:18:04.438Z,160.00
2023-01-19T08:19:04.488Z,164.00
2023-01-19T08:20:04.305Z,172.00
2023-01-19T08:21:04.131Z,188.00
2023-01-19T08:22:04.353Z,196.00
2023-01-19T08:23:04.624Z,212.00
2023-01-19T08:24:04.134Z,228.00
2023-01-19T08:25:04.391Z,268.00
2023-01-19T08:26:04.476Z,292.00
2023-01-19T08:27:04.567Z,312.00
2023-01-19T08:28:04.576Z,324.00
2023-01-19T08:29:04.795Z,328.00
2023-01-19T08:30:04.207Z,344.00
2023-01-19T08:31:18.521Z,376.00
2023-01-19T08:32:04.177Z,400.00
2023-01-19T08:33:04.475Z,420.00
2023-01-19T08:34:03.787Z,440.00
2023-01-19T08:35:03.612Z,456.00
2023-01-19T08:36:03.965Z,464.00
2023-01-19T08:37:03.664Z,452.00
2023-01-19T08:38:03.837Z,448.00
2023-01-19T08:39:04.040Z,436.00
2023-01-19T08:40:04.256Z,408.00
2023-01-19T08:41:03.541Z,384.00
2023-01-19T08:42:04.498Z,372.00
2023-01-19T08:43:04.451Z,392.00
2023-01-19T08:44:04.387Z,424.00
2023-01-19T08:45:04.316Z,440.00
2023-01-19T08:46:04.159Z,444.00
2023-01-19T08:47:04.652Z,448.00
2023-01-19T08:48:04.275Z,464.00
2023-01-19T08:49:04.520Z,508.00
2023-01-19T08:50:04.389Z,608.00
2023-01-19T08:51:04.397Z,688.00
2023-01-19T08:52:04.231Z,716.00
2023-01-19T08:53:04.327Z,760.00
2023-01-19T08:54:04.412Z,776.00
2023-01-19T08:55:03.819Z,780.00
2023-01-19T08:56:03.922Z,800.00
2023-01-19T08:57:04.658Z,896.00
2023-01-19T08:58:04.704Z,988.00
2023-01-19T08:59:09.974Z,1088.00
2023-01-19T09:00:04.319Z,1192.00
2023-01-19T09:01:04.469Z,1284.00
2023-01-19T09:02:04.681Z,1340.00
2023-01-19T09:03:04.976Z,1408.00
2023-01-19T09:04:04.504Z,1428.00
2023-01-19T09:05:04.414Z,1456.00
2023-01-19T09:06:04.354Z,1424.00
2023-01-19T09:08:04.297Z,1500.00
2023-01-19T09:09:03.998Z,1544.00
2023-01-19T09:10:04.359Z,1536.00
2023-01-19T09:11:04.008Z,1544.00
2023-01-19T09:12:04.438Z,1572.00
2023-01-19T09:13:04.421Z,1584.00
2023-01-19T09:14:04.156Z,1684.00
2023-01-19T09:15:04.630Z,1776.00
2023-01-19T09:16:04.203Z,1776.00
2023-01-19T09:17:04.996Z,1752.00
2023-01-19T09:18:04.565Z,1676.00
2023-01-19T09:19:04.481Z,1564.00
2023-01-19T09:20:04.695Z,1392.00
2023-01-19T09:22:04.692Z,908.00
2023-01-19T09:23:04.228Z,888.00
2023-01-19T09:24:04.744Z,936.00
2023-01-19T09:25:04.189Z,904.00
2023-01-19T09:26:04.062Z,848.00
2023-01-19T09:27:04.810Z,900.00
2023-01-19T09:28:04.506Z,976.00
2023-01-19T09:29:04.391Z,988.00
2023-01-19T09:30:04.317Z,964.00
2023-01-19T09:31:04.620Z,960.00
2023-01-19T09:32:03.801Z,900.00
2023-01-19T09:33:04.124Z,808.00
2023-01-19T09:34:04.170Z,744.00
2023-01-19T09:35:04.251Z,708.00
2023-01-19T09:36:04.190Z,680.00
2023-01-19T09:37:04.758Z,684.00
2023-01-19T09:38:04.575Z,720.00
2023-01-19T09:39:04.630Z,780.00
2023-01-19T09:40:04.778Z,844.00
2023-01-19T09:41:04.216Z,912.00
2023-01-19T09:42:03.712Z,988.00
2023-01-19T09:43:03.985Z,1084.00
2023-01-19T09:44:04.057Z,1208.00
2023-01-19T09:45:04.247Z,1292.00
2023-01-19T09:46:04.089Z,1356.00
2023-01-19T09:47:04.221Z,1444.00
2023-01-19T09:48:04.213Z,1488.00
2023-01-19T09:49:04.355Z,1520.00
2023-01-19T09:50:04.607Z,1540.00
2023-01-19T09:51:04.705Z,1492.00
2023-01-19T09:52:04.325Z,1436.00
2023-01-19T09:53:04.381Z,1384.00
2023-01-19T09:54:04.515Z,1408.00
2023-01-19T09:55:03.799Z,1456.00
2023-01-19T09:56:04.189Z,1552.00
2023-01-19T09:57:03.675Z,1592.00
2023-01-19T09:58:03.880Z,1564.00
2023-01-19T09:59:04.140Z,1576.00
2023-01-19T10:00:03.571Z,1764.00
2023-01-19T10:01:04.217Z,1816.00
2023-01-19T10:02:04.570Z,1876.00
2023-01-19T10:03:04.977Z,1904.00
2023-01-19T10:04:05.058Z,1948.00
2023-01-19T10:05:04.623Z,2028.00
2023-01-19T10:06:04.661Z,2176.00
2023-01-19T10:07:04.227Z,2284.00
2023-01-19T10:08:04.001Z,2284.00
2023-01-19T10:09:04.258Z,2292.00
2023-01-19T10:10:04.023Z,2280.00
2023-01-19T10:11:04.102Z,2152.00
2023-01-19T10:12:04.747Z,1984.00
2023-01-19T10:13:04.970Z,1896.00
2023-01-19T10:14:04.611Z,1756.00
2023-01-19T10:15:04.914Z,1688.00
2023-01-19T10:16:04.772Z,1716.00
2023-01-19T10:17:03.917Z,1924.00
2023-01-19T10:18:04.048Z,2096.00
2023-01-19T10:19:04.180Z,2340.00
2023-01-19T10:20:04.200Z,2808.00
2023-01-19T10:21:05.580Z,3188.00
2023-01-19T10:22:03.982Z,3340.00
2023-01-19T10:23:04.504Z,3284.00
2023-01-19T10:24:05.767Z,3172.00
2023-01-19T10:25:04.071Z,3068.00
2023-01-19T10:26:03.830Z,3004.00
2023-01-19T10:27:04.250Z,2980.00
2023-01-19T10:28:04.300Z,2928.00
2023-01-19T10:29:04.374Z,2772.00
2023-01-19T10:30:04.431Z,2684.00
2023-01-19T10:31:04.058Z,2532.00
2023-01-19T10:32:04.295Z,2368.00
2023-01-19T10:33:04.599Z,2192.00
2023-01-19T10:34:04.875Z,2092.00
2023-01-19T10:35:04.423Z,2040.00
2023-01-19T10:36:04.670Z,1932.00
2023-01-19T10:37:03.979Z,1864.00
2023-01-19T10:38:04.237Z,1844.00
2023-01-19T10:39:02.745Z,1892.00
2023-01-19T10:40:04.344Z,1956.00
2023-01-19T10:41:02.198Z,2048.00
2023-01-19T10:42:02.659Z,2084.00
2023-01-19T10:43:04.657Z,2072.00
2023-01-19T10:44:04.148Z,2104.00
2023-01-19T10:45:04.266Z,2244.00
2023-01-19T10:46:04.639Z,2316.00
2023-01-19T10:47:04.823Z,2252.00
2023-01-19T10:48:04.749Z,2068.00
2023-01-19T10:49:04.840Z,1952.00
2023-01-19T10:50:04.750Z,1840.00
2023-01-19T10:51:04.766Z,1864.00
2023-01-19T10:52:02.467Z,1916.00
2023-01-19T10:53:02.944Z,1916.00
2023-01-19T10:54:02.707Z,1824.00
2023-01-19T10:55:02.613Z,1752.00
2023-01-19T10:56:02.127Z,1884.00
2023-01-19T10:57:02.915Z,1836.00
2023-01-19T10:58:02.864Z,1628.00
2023-01-19T10:59:02.724Z,1492.00
2023-01-19T11:00:02.835Z,1392.00
2023-01-19T11:01:02.609Z,1348.00
2023-01-19T11:02:02.558Z,1240.00
2023-01-19T11:03:02.780Z,1032.00
2023-01-19T11:04:02.290Z,912.00
2023-01-19T11:05:02.325Z,972.00
2023-01-19T11:06:02.207Z,1120.00
2023-01-19T11:07:02.050Z,1220.00
2023-01-19T11:08:01.733Z,1316.00
2023-01-19T11:09:02.000Z,1432.00
2023-01-19T11:10:01.815Z,1528.00
2023-01-19T11:11:02.179Z,1604.00
2023-01-19T11:12:02.150Z,1616.00
2023-01-19T11:13:02.460Z,1576.00
2023-01-19T11:14:02.328Z,1552.00
2023-01-19T11:15:01.933Z,1528.00
2023-01-19T11:16:01.855Z,1568.00
2023-01-19T11:17:02.608Z,1604.00
2023-01-19T11:18:02.631Z,1640.00
2023-01-19T11:19:02.370Z,1632.00
2023-01-19T11:20:02.916Z,1632.00
2023-01-19T11:21:02.027Z,1704.00
2023-01-19T11:22:01.957Z,1744.00
2023-01-19T11:23:02.246Z,1780.00
2023-01-19T11:24:02.040Z,1788.00
2023-01-19T11:25:01.632Z,1760.00
2023-01-19T11:26:02.023Z,1780.00
2023-01-19T11:27:02.528Z,1848.00
2023-01-19T11:28:02.489Z,1928.00
2023-01-19T11:29:02.003Z,1896.00
2023-01-19T11:30:02.041Z,1960.00
2023-01-19T11:31:02.520Z,2032.00
2023-01-19T11:32:02.141Z,2040.00
2023-01-19T11:33:02.622Z,1960.00
2023-01-19T11:34:01.725Z,1976.00
2023-01-19T11:35:01.934Z,2036.00
2023-01-19T11:36:03.385Z,2096.00
2023-01-19T11:37:03.543Z,2256.00
2023-01-19T11:38:02.474Z,2512.00
2023-01-19T11:39:01.950Z,2728.00
2023-01-19T11:40:02.362Z,2936.00
2023-01-19T11:41:02.091Z,3156.00
2023-01-19T11:42:04.270Z,3316.00
2023-01-19T11:43:02.836Z,3500.00
2023-01-19T11:44:04.186Z,3532.00
2023-01-19T11:45:02.564Z,3604.00
2023-01-19T11:46:02.390Z,3924.00
2023-01-19T11:47:02.023Z,4216.00
2023-01-19T11:48:03.693Z,4348.00
2023-01-19T11:49:01.965Z,4364.00
2023-01-19T11:50:01.872Z,4400.00
2023-01-19T11:51:01.944Z,4616.00
2023-01-19T11:52:04.112Z,4804.00
2023-01-19T11:53:03.974Z,5168.00
2023-01-19T11:54:02.234Z,5604.00
2023-01-19T11:55:02.594Z,5280.00
2023-01-19T11:56:02.068Z,5588.00
2023-01-19T11:57:02.978Z,6196.00
2023-01-19T11:58:03.984Z,5860.00
2023-01-19T11:59:02.201Z,5080.00
2023-01-19T12:00:01.770Z,4900.00
2023-01-19T12:01:02.108Z,5068.00
2023-01-19T12:02:01.722Z,4780.00
2023-01-19T12:03:03.425Z,4600.00
2023-01-19T12:04:03.559Z,4884.00
2023-01-19T12:05:03.723Z,5468.00
2023-01-19T12:06:01.736Z,5668.00
2023-01-19T12:07:03.642Z,5668.00
2023-01-19T12:08:05.484Z,5492.00
2023-01-19T12:09:02.570Z,5500.00
2023-01-19T12:10:02.704Z,5848.00
2023-01-19T12:11:04.002Z,6212.00
2023-01-19T12:12:02.824Z,6384.00
2023-01-19T12:13:03.883Z,6528.00
2023-01-19T12:14:03.961Z,6772.00
2023-01-19T12:15:02.041Z,6784.00
2023-01-19T12:16:01.950Z,6400.00
2023-01-19T12:17:02.249Z,5916.00
2023-01-19T12:18:03.801Z,6572.00
2023-01-19T12:19:01.914Z,6796.00
2023-01-19T12:20:01.544Z,6960.00
2023-01-19T12:21:03.969Z,7240.00
2023-01-19T12:22:03.152Z,7448.00
2023-01-19T12:23:03.561Z,7492.00
2023-01-19T12:24:01.993Z,7312.00
2023-01-19T12:25:01.961Z,7208.00
2023-01-19T12:26:01.900Z,6944.00
2023-01-19T12:27:01.873Z,7260.00
2023-01-19T12:28:02.501Z,7024.00
2023-01-19T12:29:02.263Z,6880.00
2023-01-19T12:30:02.398Z,7344.00
2023-01-19T12:31:02.887Z,7700.00
2023-01-19T12:32:02.643Z,8256.00
2023-01-19T12:33:01.683Z,8756.00
2023-01-19T12:34:01.371Z,8852.00
2023-01-19T12:35:01.840Z,8620.00
2023-01-19T12:36:01.889Z,8132.00
2023-01-19T12:37:01.419Z,8024.00
2023-01-19T12:38:02.009Z,8000.00
2023-01-19T12:39:02.269Z,8780.00
2023-01-19T12:40:02.307Z,6828.00
2023-01-19T12:41:02.284Z,6108.00
2023-01-19T12:42:02.124Z,5744.00
2023-01-19T12:43:01.966Z,5600.00
2023-01-19T12:44:02.383Z,5956.00
2023-01-19T12:45:01.897Z,5928.00
2023-01-19T12:46:02.050Z,5956.00
2023-01-19T12:47:01.941Z,6492.00
2023-01-19T12:48:02.740Z,7200.00
2023-01-19T12:49:02.459Z,7712.00
2023-01-19T12:50:02.352Z,8156.00
2023-01-19T12:51:02.225Z,13668.00